sensor_id;sensor_type;location;lat;lon;timestamp;pressure;altitude;pressure_sealevel;temperature;humidity
62634;BME280;48704;50.534;6.442;2023-09-19T00:01:45;94999.75;;;12.85;100.00
62634;BME280;48704;50.534;6.442;2023-09-19T00:04:12;95006.84;;;12.80;100.00
62634;BME280;48704;50.534;6.442;2023-09-19T00:06:38;95011.38;;;12.66;100.00
62634;BME280;48704;50.534;6.442;2023-09-19T00:09:04;95019.00;;;12.49;100.00
62634;BME280;48704;50.534;6.442;2023-09-19T00:11:29;95019.03;;;12.60;100.00
62634;BME280;48704;50.534;6.442;2023-09-19T00:13:56;95020.00;;;12.46;100.00
62634;BME280;48704;50.534;6.442;2023-09-19T00:16:22;95021.25;;;12.39;100.00
62634;BME280;48704;50.534;6.442;2023-09-19T00:18:48;95017.91;;;12.30;100.00
62634;BME280;48704;50.534;6.442;2023-09-19T00:21:14;95006.47;;;12.22;100.00
62634;BME280;48704;50.534;6.442;2023-09-19T00:23:40;95013.78;;;12.09;100.00
62634;BME280;48704;50.534;6.442;2023-09-19T00:26:06;95021.41;;;12.08;100.00
62634;BME280;48704;50.534;6.442;2023-09-19T00:28:31;95018.56;;;12.02;100.00
62634;BME280;48704;50.534;6.442;2023-09-19T00:30:57;95028.91;;;11.85;100.00
62634;BME280;48704;50.534;6.442;2023-09-19T00:33:26;95019.88;;;11.64;100.00
62634;BME280;48704;50.534;6.442;2023-09-19T00:35:52;95021.44;;;11.71;100.00
62634;BME280;48704;50.534;6.442;2023-09-19T00:38:19;95012.22;;;11.59;100.00
62634;BME280;48704;50.534;6.442;2023-09-19T00:40:48;95028.06;;;11.36;100.00
62634;BME280;48704;50.534;6.442;2023-09-19T00:43:13;95020.44;;;11.31;100.00
62634;BME280;48704;50.534;6.442;2023-09-19T00:45:42;95023.63;;;11.19;100.00
62634;BME280;48704;50.534;6.442;2023-09-19T00:48:08;95031.97;;;11.13;100.00
62634;BME280;48704;50.534;6.442;2023-09-19T00:50:35;95034.28;;;11.20;100.00
62634;BME280;48704;50.534;6.442;2023-09-19T00:53:01;95028.44;;;11.18;100.00
62634;BME280;48704;50.534;6.442;2023-09-19T00:55:29;95049.97;;;11.12;100.00
62634;BME280;48704;50.534;6.442;2023-09-19T00:57:56;95047.88;;;11.07;100.00
62634;BME280;48704;50.534;6.442;2023-09-19T01:00:22;95052.19;;;11.08;100.00
62634;BME280;48704;50.534;6.442;2023-09-19T01:02:48;95050.13;;;11.03;100.00
62634;BME280;48704;50.534;6.442;2023-09-19T01:05:14;95048.81;;;10.98;100.00
62634;BME280;48704;50.534;6.442;2023-09-19T01:07:40;95050.56;;;10.96;100.00
62634;BME280;48704;50.534;6.442;2023-09-19T01:10:07;95053.56;;;10.92;100.00
62634;BME280;48704;50.534;6.442;2023-09-19T01:12:52;95060.47;;;10.97;100.00
62634;BME280;48704;50.534;6.442;2023-09-19T01:21:45;95048.44;;;11.11;100.00
62634;BME280;48704;50.534;6.442;2023-09-19T01:30:26;95045.66;;;11.11;100.00
62634;BME280;48704;50.534;6.442;2023-09-19T01:32:57;95050.44;;;11.11;100.00
62634;BME280;48704;50.534;6.442;2023-09-19T01:35:24;95046.69;;;11.19;100.00
62634;BME280;48704;50.534;6.442;2023-09-19T01:37:49;95052.53;;;11.21;100.00
62634;BME280;48704;50.534;6.442;2023-09-19T01:40:18;95052.53;;;11.21;100.00
62634;BME280;48704;50.534;6.442;2023-09-19T01:43:26;95052.66;;;11.32;100.00
62634;BME280;48704;50.534;6.442;2023-09-19T01:46:15;95055.44;;;11.32;100.00
62634;BME280;48704;50.534;6.442;2023-09-19T01:51:42;95060.75;;;11.30;100.00
62634;BME280;48704;50.534;6.442;2023-09-19T01:54:12;95058.66;;;11.25;100.00
62634;BME280;48704;50.534;6.442;2023-09-19T01:57:02;95049.31;;;11.28;100.00
62634;BME280;48704;50.534;6.442;2023-09-19T01:59:36;95067.91;;;11.37;100.00
62634;BME280;48704;50.534;6.442;2023-09-19T02:02:06;95065.00;;;11.26;100.00
62634;BME280;48704;50.534;6.442;2023-09-19T02:04:33;95079.81;;;11.37;100.00
62634;BME280;48704;50.534;6.442;2023-09-19T02:07:00;95075.91;;;11.24;100.00
62634;BME280;48704;50.534;6.442;2023-09-19T02:09:26;95086.28;;;11.23;100.00
62634;BME280;48704;50.534;6.442;2023-09-19T02:11:51;95083.53;;;11.29;100.00
62634;BME280;48704;50.534;6.442;2023-09-19T02:14:17;95072.06;;;11.21;100.00
62634;BME280;48704;50.534;6.442;2023-09-19T02:16:44;95074.03;;;11.15;100.00
62634;BME280;48704;50.534;6.442;2023-09-19T02:19:10;95080.72;;;11.23;100.00
62634;BME280;48704;50.534;6.442;2023-09-19T02:21:35;95081.69;;;11.20;100.00
62634;BME280;48704;50.534;6.442;2023-09-19T02:24:00;95074.50;;;11.08;100.00
62634;BME280;48704;50.534;6.442;2023-09-19T02:26:26;95077.09;;;11.17;100.00
62634;BME280;48704;50.534;6.442;2023-09-19T02:28:52;95073.84;;;10.93;100.00
62634;BME280;48704;50.534;6.442;2023-09-19T02:31:18;95078.00;;;11.03;100.00
62634;BME280;48704;50.534;6.442;2023-09-19T02:33:43;95073.31;;;10.89;100.00
62634;BME280;48704;50.534;6.442;2023-09-19T02:36:08;95079.22;;;10.96;100.00
62634;BME280;48704;50.534;6.442;2023-09-19T02:38:34;95084.56;;;11.00;100.00
62634;BME280;48704;50.534;6.442;2023-09-19T02:40:59;95088.34;;;10.97;100.00
62634;BME280;48704;50.534;6.442;2023-09-19T02:43:25;95088.06;;;10.95;100.00
62634;BME280;48704;50.534;6.442;2023-09-19T02:45:51;95082.16;;;10.87;100.00
62634;BME280;48704;50.534;6.442;2023-09-19T02:48:18;95085.72;;;10.88;100.00
62634;BME280;48704;50.534;6.442;2023-09-19T02:50:43;95074.72;;;10.79;100.00
62634;BME280;48704;50.534;6.442;2023-09-19T02:53:09;95077.28;;;10.82;100.00
62634;BME280;48704;50.534;6.442;2023-09-19T02:55:37;95085.34;;;10.75;100.00
62634;BME280;48704;50.534;6.442;2023-09-19T02:58:06;95099.00;;;10.73;100.00
62634;BME280;48704;50.534;6.442;2023-09-19T03:00:33;95080.75;;;10.71;100.00
62634;BME280;48704;50.534;6.442;2023-09-19T03:02:59;95086.34;;;10.77;100.00
62634;BME280;48704;50.534;6.442;2023-09-19T03:05:24;95078.81;;;10.57;100.00
62634;BME280;48704;50.534;6.442;2023-09-19T03:07:51;95085.50;;;10.65;100.00
62634;BME280;48704;50.534;6.442;2023-09-19T03:10:17;95087.59;;;10.50;100.00
62634;BME280;48704;50.534;6.442;2023-09-19T03:12:43;95086.28;;;10.46;100.00
62634;BME280;48704;50.534;6.442;2023-09-19T03:15:09;95094.69;;;10.51;100.00
62634;BME280;48704;50.534;6.442;2023-09-19T03:17:34;95095.69;;;10.48;100.00
62634;BME280;48704;50.534;6.442;2023-09-19T03:20:01;95095.16;;;10.24;100.00
62634;BME280;48704;50.534;6.442;2023-09-19T03:22:27;95090.09;;;10.48;100.00
62634;BME280;48704;50.534;6.442;2023-09-19T03:24:52;95087.03;;;10.46;100.00
62634;BME280;48704;50.534;6.442;2023-09-19T03:27:18;95088.72;;;10.58;100.00
62634;BME280;48704;50.534;6.442;2023-09-19T03:29:43;95092.97;;;10.54;100.00
62634;BME280;48704;50.534;6.442;2023-09-19T03:32:09;95105.44;;;10.58;100.00
62634;BME280;48704;50.534;6.442;2023-09-19T03:34:37;95105.50;;;10.44;100.00
62634;BME280;48704;50.534;6.442;2023-09-19T03:37:08;95092.19;;;10.53;100.00
62634;BME280;48704;50.534;6.442;2023-09-19T03:39:34;95087.50;;;10.39;100.00
62634;BME280;48704;50.534;6.442;2023-09-19T03:41:59;95091.28;;;10.42;100.00
62634;BME280;48704;50.534;6.442;2023-09-19T03:44:24;95091.44;;;10.53;100.00
62634;BME280;48704;50.534;6.442;2023-09-19T03:46:50;95093.16;;;10.50;100.00
62634;BME280;48704;50.534;6.442;2023-09-19T03:49:15;95094.69;;;10.51;100.00
62634;BME280;48704;50.534;6.442;2023-09-19T03:51:40;95090.94;;;10.54;100.00
62634;BME280;48704;50.534;6.442;2023-09-19T03:54:07;95092.13;;;10.48;100.00
62634;BME280;48704;50.534;6.442;2023-09-19T03:56:32;95091.44;;;10.53;100.00
62634;BME280;48704;50.534;6.442;2023-09-19T03:58:57;95097.06;;;10.58;100.00
62634;BME280;48704;50.534;6.442;2023-09-19T04:01:23;95093.94;;;10.51;100.00
62634;BME280;48704;50.534;6.442;2023-09-19T04:03:49;95083.00;;;10.47;100.00
62634;BME280;48704;50.534;6.442;2023-09-19T04:06:17;95089.56;;;10.44;100.00
62634;BME280;48704;50.534;6.442;2023-09-19T04:08:43;95093.94;;;10.51;100.00
62634;BME280;48704;50.534;6.442;2023-09-19T04:11:09;95086.63;;;10.53;100.00
62634;BME280;48704;50.534;6.442;2023-09-19T04:13:35;95092.63;;;10.46;100.00
62634;BME280;48704;50.534;6.442;2023-09-19T04:16:00;95090.09;;;10.48;100.00
62634;BME280;48704;50.534;6.442;2023-09-19T04:18:26;95102.19;;;10.40;100.00
62634;BME280;48704;50.534;6.442;2023-09-19T04:20:52;95103.75;;;10.46;100.00
62634;BME280;48704;50.534;6.442;2023-09-19T04:23:17;95110.31;;;10.43;100.00
62634;BME280;48704;50.534;6.442;2023-09-19T04:25:45;95109.88;;;10.50;100.00
62634;BME280;48704;50.534;6.442;2023-09-19T04:28:10;95111.84;;;10.44;100.00
62634;BME280;48704;50.534;6.442;2023-09-19T04:30:39;95109.88;;;10.50;100.00
62634;BME280;48704;50.534;6.442;2023-09-19T04:33:08;95112.41;;;10.48;100.00
62634;BME280;48704;50.534;6.442;2023-09-19T04:35:33;95106.59;;;10.52;100.00
62634;BME280;48704;50.534;6.442;2023-09-19T04:37:59;95111.84;;;10.44;100.00
62634;BME280;48704;50.534;6.442;2023-09-19T04:40:24;95114.69;;;10.50;100.00
62634;BME280;48704;50.534;6.442;2023-09-19T04:42:55;95111.84;;;10.44;100.00
62634;BME280;48704;50.534;6.442;2023-09-19T04:45:27;95098.94;;;10.47;100.00
62634;BME280;48704;50.534;6.442;2023-09-19T04:47:53;95109.31;;;10.46;100.00
62634;BME280;48704;50.534;6.442;2023-09-19T04:50:19;95103.75;;;10.46;100.00
62634;BME280;48704;50.534;6.442;2023-09-19T04:52:49;95111.78;;;10.38;100.00
62634;BME280;48704;50.534;6.442;2023-09-19T04:55:16;95107.47;;;10.37;100.00
62634;BME280;48704;50.534;6.442;2023-09-19T04:57:45;95113.81;;;10.38;100.00
62634;BME280;48704;50.534;6.442;2023-09-19T05:00:15;95108.78;;;10.42;100.00
62634;BME280;48704;50.534;6.442;2023-09-19T05:02:43;95112.28;;;10.37;100.00
62634;BME280;48704;50.534;6.442;2023-09-19T05:05:09;95117.84;;;10.37;100.00
62634;BME280;48704;50.534;6.442;2023-09-19T05:07:36;95117.84;;;10.37;100.00
62634;BME280;48704;50.534;6.442;2023-09-19T05:10:02;95129.41;;;10.30;100.00
62634;BME280;48704;50.534;6.442;2023-09-19T05:12:31;95125.16;;;10.34;100.00
62634;BME280;48704;50.534;6.442;2023-09-19T05:14:57;95127.75;;;10.38;100.00
62634;BME280;48704;50.534;6.442;2023-09-19T05:17:22;95133.03;;;10.36;100.00
62634;BME280;48704;50.534;6.442;2023-09-19T05:19:49;95136.09;;;10.38;100.00
62634;BME280;48704;50.534;6.442;2023-09-19T05:22:15;95143.19;;;10.39;100.00
62634;BME280;48704;50.534;6.442;2023-09-19T05:24:40;95143.19;;;10.39;100.00
62634;BME280;48704;50.534;6.442;2023-09-19T05:27:05;95153.34;;;10.42;100.00
62634;BME280;48704;50.534;6.442;2023-09-19T05:29:32;95162.47;;;10.43;100.00
62634;BME280;48704;50.534;6.442;2023-09-19T05:31:58;95163.50;;;10.45;100.00
62634;BME280;48704;50.534;6.442;2023-09-19T05:34:23;95168.66;;;10.52;100.00
62634;BME280;48704;50.534;6.442;2023-09-19T05:36:55;95167.47;;;10.59;100.00
62634;BME280;48704;50.534;6.442;2023-09-19T05:39:20;95176.47;;;10.48;100.00
62634;BME280;48704;50.534;6.442;2023-09-19T05:41:45;95165.38;;;10.54;100.00
62634;BME280;48704;50.534;6.442;2023-09-19T05:44:12;95171.94;;;10.51;100.00
62634;BME280;48704;50.534;6.442;2023-09-19T05:46:39;95171.16;;;10.50;100.00
62634;BME280;48704;50.534;6.442;2023-09-19T05:49:04;95173.25;;;10.55;100.00
62634;BME280;48704;50.534;6.442;2023-09-19T05:51:29;95172.84;;;10.62;100.00
62634;BME280;48704;50.534;6.442;2023-09-19T05:53:54;95172.16;;;10.67;100.00
62634;BME280;48704;50.534;6.442;2023-09-19T05:56:20;95187.25;;;10.61;100.00
62634;BME280;48704;50.534;6.442;2023-09-19T05:58:45;95178.56;;;10.74;100.00
62634;BME280;48704;50.534;6.442;2023-09-19T06:01:11;95175.34;;;10.60;100.00
62634;BME280;48704;50.534;6.442;2023-09-19T06:03:36;95181.63;;;10.76;100.00
62634;BME280;48704;50.534;6.442;2023-09-19T06:06:02;95187.63;;;10.68;100.00
62634;BME280;48704;50.534;6.442;2023-09-19T06:08:27;95188.25;;;10.58;100.00
62634;BME280;48704;50.534;6.442;2023-09-19T06:10:53;95182.31;;;10.70;100.00
62634;BME280;48704;50.534;6.442;2023-09-19T06:13:19;95194.31;;;10.77;100.00
62634;BME280;48704;50.534;6.442;2023-09-19T06:15:46;95184.66;;;10.78;100.00
62634;BME280;48704;50.534;6.442;2023-09-19T06:18:13;95199.16;;;10.82;100.00
62634;BME280;48704;50.534;6.442;2023-09-19T06:20:46;95195.13;;;10.83;100.00
62634;BME280;48704;50.534;6.442;2023-09-19T06:23:13;95210.25;;;10.76;100.00
62634;BME280;48704;50.534;6.442;2023-09-19T06:25:38;95209.06;;;10.83;100.00
62634;BME280;48704;50.534;6.442;2023-09-19T06:28:04;95211.56;;;10.81;100.00
62634;BME280;48704;50.534;6.442;2023-09-19T06:30:30;95214.22;;;10.90;100.00
62634;BME280;48704;50.534;6.442;2023-09-19T06:33:00;95222.28;;;10.88;100.00
62634;BME280;48704;50.534;6.442;2023-09-19T06:35:26;95207.94;;;10.95;100.00
62634;BME280;48704;50.534;6.442;2023-09-19T06:37:52;95213.66;;;10.86;100.00
62634;BME280;48704;50.534;6.442;2023-09-19T06:40:18;95218.94;;;11.04;100.00
62634;BME280;48704;50.534;6.442;2023-09-19T06:42:46;95216.16;;;11.04;100.00
62634;BME280;48704;50.534;6.442;2023-09-19T06:45:13;95217.75;;;11.11;100.00
62634;BME280;48704;50.534;6.442;2023-09-19T06:47:42;95216.53;;;11.17;100.00
62634;BME280;48704;50.534;6.442;2023-09-19T06:50:08;95225.44;;;11.21;100.00
62634;BME280;48704;50.534;6.442;2023-09-19T06:52:39;95228.66;;;11.14;100.00
62634;BME280;48704;50.534;6.442;2023-09-19T06:55:04;95234.03;;;11.18;100.00
62634;BME280;48704;50.534;6.442;2023-09-19T06:57:31;95232.28;;;11.20;100.00
62634;BME280;48704;50.534;6.442;2023-09-19T06:59:56;95242.75;;;11.25;100.00
62634;BME280;48704;50.534;6.442;2023-09-19T07:02:21;95232.84;;;11.24;100.00
62634;BME280;48704;50.534;6.442;2023-09-19T07:04:47;95225.84;;;11.34;100.00
62634;BME280;48704;50.534;6.442;2023-09-19T07:07:12;95223.47;;;11.48;100.00
62634;BME280;48704;50.534;6.442;2023-09-19T07:09:39;95216.78;;;11.39;100.00
62634;BME280;48704;50.534;6.442;2023-09-19T07:12:04;95227.59;;;11.58;100.00
62634;BME280;48704;50.534;6.442;2023-09-19T07:14:30;95233.50;;;11.65;100.00
62634;BME280;48704;50.534;6.442;2023-09-19T07:16:55;95225.91;;;11.66;100.00
62634;BME280;48704;50.534;6.442;2023-09-19T07:19:20;95230.97;;;11.67;100.00
62634;BME280;48704;50.534;6.442;2023-09-19T07:21:47;95227.38;;;11.61;100.00
62634;BME280;48704;50.534;6.442;2023-09-19T07:24:12;95218.44;;;11.57;100.00
62634;BME280;48704;50.534;6.442;2023-09-19T07:26:38;95220.03;;;11.64;100.00
62634;BME280;48704;50.534;6.442;2023-09-19T07:29:05;95224.63;;;11.67;100.00
62634;BME280;48704;50.534;6.442;2023-09-19T07:31:31;95214.13;;;11.56;100.00
62634;BME280;48704;50.534;6.442;2023-09-19T07:33:57;95212.38;;;11.59;100.00
62634;BME280;48704;50.534;6.442;2023-09-19T07:36:22;95224.00;;;11.78;100.00
62634;BME280;48704;50.534;6.442;2023-09-19T07:38:49;95218.97;;;11.82;100.00
62634;BME280;48704;50.534;6.442;2023-09-19T07:41:14;95215.56;;;11.72;100.00
62634;BME280;48704;50.534;6.442;2023-09-19T07:43:40;95223.09;;;11.66;100.00
62634;BME280;48704;50.534;6.442;2023-09-19T07:46:06;95227.25;;;11.76;100.00
62634;BME280;48704;50.534;6.442;2023-09-19T07:48:33;95232.97;;;11.87;100.00
62634;BME280;48704;50.534;6.442;2023-09-19T07:51:05;95233.75;;;11.93;100.00
62634;BME280;48704;50.534;6.442;2023-09-19T07:53:31;95228.41;;;11.90;100.00
62634;BME280;48704;50.534;6.442;2023-09-19T07:56:07;95240.25;;;12.11;100.00
62634;BME280;48704;50.534;6.442;2023-09-19T07:58:33;95240.25;;;12.11;100.00
62634;BME280;48704;50.534;6.442;2023-09-19T08:01:04;95233.03;;;11.98;100.00
62634;BME280;48704;50.534;6.442;2023-09-19T08:03:29;95232.22;;;11.92;100.00
62634;BME280;48704;50.534;6.442;2023-09-19T08:05:56;95242.47;;;12.01;100.00
62634;BME280;48704;50.534;6.442;2023-09-19T08:08:23;95252.41;;;12.08;100.00
62634;BME280;48704;50.534;6.442;2023-09-19T08:10:52;95247.38;;;12.12;100.00
62634;BME280;48704;50.534;6.442;2023-09-19T08:13:18;95251.25;;;12.25;100.00
62634;BME280;48704;50.534;6.442;2023-09-19T08:15:44;95273.47;;;12.40;100.00
62634;BME280;48704;50.534;6.442;2023-09-19T08:18:09;95261.13;;;12.52;100.00
62634;BME280;48704;50.534;6.442;2023-09-19T08:20:38;95258.09;;;12.56;100.00
62634;BME280;48704;50.534;6.442;2023-09-19T08:23:03;95253.31;;;12.67;100.00
62634;BME280;48704;50.534;6.442;2023-09-19T08:25:29;95246.94;;;12.61;100.00
62634;BME280;48704;50.534;6.442;2023-09-19T08:27:55;95246.25;;;12.78;100.00
62634;BME280;48704;50.534;6.442;2023-09-19T08:30:23;95241.59;;;12.63;100.00
62634;BME280;48704;50.534;6.442;2023-09-19T08:32:50;95241.91;;;12.71;100.00
62634;BME280;48704;50.534;6.442;2023-09-19T08:35:15;95240.22;;;12.90;100.00
62634;BME280;48704;50.534;6.442;2023-09-19T08:37:42;95243.31;;;12.98;100.00
62634;BME280;48704;50.534;6.442;2023-09-19T08:40:08;95246.63;;;13.02;100.00
62634;BME280;48704;50.534;6.442;2023-09-19T08:42:50;95251.75;;;13.15;100.00
62634;BME280;48704;50.534;6.442;2023-09-19T08:45:16;95243.31;;;12.98;100.00
62634;BME280;48704;50.534;6.442;2023-09-19T08:47:47;95242.66;;;13.20;100.00
62634;BME280;48704;50.534;6.442;2023-09-19T08:50:20;95252.06;;;13.22;100.00
62634;BME280;48704;50.534;6.442;2023-09-19T08:52:51;95239.41;;;13.32;100.00
62634;BME280;48704;50.534;6.442;2023-09-19T08:55:19;95249.81;;;13.37;100.00
62634;BME280;48704;50.534;6.442;2023-09-19T08:57:52;95251.91;;;13.59;100.00
62634;BME280;48704;50.534;6.442;2023-09-19T09:00:24;95255.25;;;13.69;100.00
62634;BME280;48704;50.534;6.442;2023-09-19T09:02:54;95249.91;;;13.71;100.00
62634;BME280;48704;50.534;6.442;2023-09-19T09:05:20;95256.25;;;13.77;100.00
62634;BME280;48704;50.534;6.442;2023-09-19T09:07:49;95257.03;;;13.78;100.00
62634;BME280;48704;50.534;6.442;2023-09-19T09:10:16;95255.00;;;13.67;100.00
62634;BME280;48704;50.534;6.442;2023-09-19T09:12:42;95253.72;;;14.13;100.00
62634;BME280;48704;50.534;6.442;2023-09-19T09:15:08;95249.16;;;13.98;100.00
62634;BME280;48704;50.534;6.442;2023-09-19T09:17:37;95254.75;;;14.21;100.00
62634;BME280;48704;50.534;6.442;2023-09-19T09:20:02;95259.34;;;14.24;100.00
62634;BME280;48704;50.534;6.442;2023-09-19T09:22:30;95250.69;;;14.22;100.00
62634;BME280;48704;50.534;6.442;2023-09-19T09:24:57;95263.44;;;14.28;100.00
62634;BME280;48704;50.534;6.442;2023-09-19T09:27:30;95240.97;;;14.67;100.00
62634;BME280;48704;50.534;6.442;2023-09-19T09:29:57;95235.91;;;14.49;100.00
62634;BME280;48704;50.534;6.442;2023-09-19T09:32:30;95245.34;;;14.46;100.00
62634;BME280;48704;50.534;6.442;2023-09-19T09:35:00;95246.50;;;14.90;100.00
62634;BME280;48704;50.534;6.442;2023-09-19T09:37:27;95255.44;;;14.94;100.00
62634;BME280;48704;50.534;6.442;2023-09-19T09:40:00;95233.97;;;15.02;100.00
62634;BME280;48704;50.534;6.442;2023-09-19T09:42:45;95237.91;;;14.65;100.00
62634;BME280;48704;50.534;6.442;2023-09-19T09:45:24;95237.66;;;14.63;100.00
62634;BME280;48704;50.534;6.442;2023-09-19T09:47:58;95245.34;;;14.35;100.00
62634;BME280;48704;50.534;6.442;2023-09-19T09:52:54;95238.41;;;14.81;100.00
62634;BME280;48704;50.534;6.442;2023-09-19T09:55:26;95237.13;;;15.39;100.00
62634;BME280;48704;50.534;6.442;2023-09-19T09:58:17;95244.13;;;15.16;100.00
62634;BME280;48704;50.534;6.442;2023-09-19T10:00:53;95234.34;;;14.70;100.00
62634;BME280;48704;50.534;6.442;2023-09-19T10:03:32;95235.88;;;14.71;100.00
62634;BME280;48704;50.534;6.442;2023-09-19T10:05:59;95231.31;;;14.57;100.00
62634;BME280;48704;50.534;6.442;2023-09-19T10:08:34;95226.44;;;14.69;100.00
62634;BME280;48704;50.534;6.442;2023-09-19T10:11:00;95230.78;;;14.64;100.00
62634;BME280;48704;50.534;6.442;2023-09-19T10:13:35;95217.53;;;14.59;100.00
62634;BME280;48704;50.534;6.442;2023-09-19T10:16:06;95227.44;;;14.71;99.52
62634;BME280;48704;50.534;6.442;2023-09-19T10:18:36;95230.22;;;14.83;98.94
62634;BME280;48704;50.534;6.442;2023-09-19T10:21:04;95220.44;;;15.12;98.72
62634;BME280;48704;50.534;6.442;2023-09-19T10:23:32;95226.56;;;15.10;95.92
62634;BME280;48704;50.534;6.442;2023-09-19T10:26:00;95214.84;;;15.06;93.94
62634;BME280;48704;50.534;6.442;2023-09-19T10:28:27;95232.09;;;15.74;95.65
62634;BME280;48704;50.534;6.442;2023-09-19T10:30:54;95231.75;;;15.88;91.65
62634;BME280;48704;50.534;6.442;2023-09-19T10:33:21;95235.09;;;16.17;90.08
62634;BME280;48704;50.534;6.442;2023-09-19T10:35:49;95222.84;;;15.84;85.63
62634;BME280;48704;50.534;6.442;2023-09-19T10:38:23;95225.31;;;16.29;87.30
62634;BME280;48704;50.534;6.442;2023-09-19T10:40:50;95226.03;;;15.99;83.96
62634;BME280;48704;50.534;6.442;2023-09-19T10:43:18;95239.56;;;16.01;84.69
62634;BME280;48704;50.534;6.442;2023-09-19T10:45:44;95247.50;;;16.62;86.01
62634;BME280;48704;50.534;6.442;2023-09-19T10:48:12;95245.69;;;15.64;83.49
62634;BME280;48704;50.534;6.442;2023-09-19T10:50:47;95241.13;;;16.32;84.63
62634;BME280;48704;50.534;6.442;2023-09-19T10:53:14;95249.16;;;16.17;82.54
62634;BME280;48704;50.534;6.442;2023-09-19T10:55:49;95235.19;;;15.70;83.82
62634;BME280;48704;50.534;6.442;2023-09-19T10:58:27;95249.59;;;15.96;86.08
62634;BME280;48704;50.534;6.442;2023-09-19T11:03:21;95246.06;;;16.50;85.69
62634;BME280;48704;50.534;6.442;2023-09-19T11:06:02;95248.00;;;16.66;85.07
62634;BME280;48704;50.534;6.442;2023-09-19T11:08:54;95231.88;;;16.67;87.46
62634;BME280;48704;50.534;6.442;2023-09-19T11:30:31;95252.69;;;16.23;85.29
62634;BME280;48704;50.534;6.442;2023-09-19T11:33:28;95235.59;;;15.85;87.17
62634;BME280;48704;50.534;6.442;2023-09-19T11:41:36;95243.47;;;15.92;84.86
62634;BME280;48704;50.534;6.442;2023-09-19T11:49:31;95251.75;;;16.15;85.54
62634;BME280;48704;50.534;6.442;2023-09-19T11:51:58;95243.47;;;15.92;85.09
62634;BME280;48704;50.534;6.442;2023-09-19T11:54:30;95241.59;;;15.65;91.72
62634;BME280;48704;50.534;6.442;2023-09-19T11:56:58;95241.47;;;15.87;92.06
62634;BME280;48704;50.534;6.442;2023-09-19T11:59:25;95250.63;;;15.93;90.36
62634;BME280;48704;50.534;6.442;2023-09-19T12:01:58;95247.41;;;16.14;89.90
62634;BME280;48704;50.534;6.442;2023-09-19T12:04:42;95239.66;;;16.25;89.69
62634;BME280;48704;50.534;6.442;2023-09-19T12:07:12;95237.66;;;16.45;88.03
62634;BME280;48704;50.534;6.442;2023-09-19T12:09:42;95251.13;;;16.27;87.54
62634;BME280;48704;50.534;6.442;2023-09-19T12:12:10;95241.06;;;16.67;87.35
62634;BME280;48704;50.534;6.442;2023-09-19T12:14:38;95259.94;;;16.73;87.55
62634;BME280;48704;50.534;6.442;2023-09-19T12:17:04;95241.84;;;16.68;84.53
62634;BME280;48704;50.534;6.442;2023-09-19T12:19:30;95256.59;;;16.44;85.99
62634;BME280;48704;50.534;6.442;2023-09-19T12:21:56;95252.63;;;16.58;84.05
62634;BME280;48704;50.534;6.442;2023-09-19T12:24:30;95256.97;;;17.51;82.75
62634;BME280;48704;50.534;6.442;2023-09-19T12:27:03;95265.34;;;16.95;81.55
62634;BME280;48704;50.534;6.442;2023-09-19T12:29:30;95258.88;;;16.76;82.30
62634;BME280;48704;50.534;6.442;2023-09-19T12:31:57;95253.91;;;16.33;82.84
62634;BME280;48704;50.534;6.442;2023-09-19T12:34:24;95235.91;;;16.96;80.41
62634;BME280;48704;50.534;6.442;2023-09-19T12:37:12;95244.94;;;17.51;81.94
62634;BME280;48704;50.534;6.442;2023-09-19T12:39:42;95235.09;;;17.01;79.37
62634;BME280;48704;50.534;6.442;2023-09-19T12:42:10;95234.75;;;17.48;81.52
62634;BME280;48704;50.534;6.442;2023-09-19T12:44:44;95241.16;;;17.86;79.29
62634;BME280;48704;50.534;6.442;2023-09-19T12:47:14;95238.13;;;17.65;81.05
62634;BME280;48704;50.534;6.442;2023-09-19T12:50:10;95238.25;;;17.35;79.38
62634;BME280;48704;50.534;6.442;2023-09-19T12:52:44;95252.56;;;16.94;77.37
62634;BME280;48704;50.534;6.442;2023-09-19T12:55:31;95240.19;;;17.02;80.37
62634;BME280;48704;50.534;6.442;2023-09-19T13:00:43;95241.88;;;16.62;80.89
62634;BME280;48704;50.534;6.442;2023-09-19T13:03:28;95229.88;;;17.29;79.85
62634;BME280;48704;50.534;6.442;2023-09-19T13:06:00;95228.84;;;16.59;82.13
62634;BME280;48704;50.534;6.442;2023-09-19T13:08:31;95225.59;;;17.04;81.93
62634;BME280;48704;50.534;6.442;2023-09-19T13:11:02;95235.91;;;16.96;80.98
62634;BME280;48704;50.534;6.442;2023-09-19T13:13:29;95216.72;;;17.37;78.49
62634;BME280;48704;50.534;6.442;2023-09-19T13:15:55;95214.03;;;17.26;80.80
62634;BME280;48704;50.534;6.442;2023-09-19T13:18:23;95220.63;;;18.36;77.83
62634;BME280;48704;50.534;6.442;2023-09-19T13:21:08;95214.13;;;18.41;75.06
62634;BME280;48704;50.534;6.442;2023-09-19T13:23:42;95218.78;;;18.84;72.10
62634;BME280;48704;50.534;6.442;2023-09-19T13:26:09;95203.25;;;19.30;71.83
62634;BME280;48704;50.534;6.442;2023-09-19T13:28:35;95203.59;;;18.87;71.28
62634;BME280;48704;50.534;6.442;2023-09-19T13:31:01;95206.41;;;19.74;70.70
62634;BME280;48704;50.534;6.442;2023-09-19T13:33:26;95201.19;;;19.04;69.12
62634;BME280;48704;50.534;6.442;2023-09-19T13:35:51;95196.22;;;18.84;75.55
62634;BME280;48704;50.534;6.442;2023-09-19T13:38:17;95190.31;;;18.68;72.68
62634;BME280;48704;50.534;6.442;2023-09-19T13:40:47;95194.88;;;19.24;69.64
62634;BME280;48704;50.534;6.442;2023-09-19T13:43:12;95198.16;;;19.28;69.59
62634;BME280;48704;50.534;6.442;2023-09-19T13:45:38;95209.78;;;18.40;72.21
62634;BME280;48704;50.534;6.442;2023-09-19T13:48:07;95197.72;;;17.94;74.30
62634;BME280;48704;50.534;6.442;2023-09-19T13:50:34;95206.81;;;18.19;72.65
62634;BME280;48704;50.534;6.442;2023-09-19T13:53:01;95214.50;;;17.87;73.76